sensor_id;sensor_type;location;lat;lon;timestamp;temperature;humidity
60701;DHT22;46541;49.894;10.886;2022-08-19T00:02:01;22.70;99.90
60701;DHT22;46541;49.894;10.886;2022-08-19T00:04:31;22.70;99.90
60701;DHT22;46541;49.894;10.886;2022-08-19T00:06:59;22.70;99.90
60701;DHT22;46541;49.894;10.886;2022-08-19T00:09:27;22.70;99.90
60701;DHT22;46541;49.894;10.886;2022-08-19T00:11:54;22.60;99.90
60701;DHT22;46541;49.894;10.886;2022-08-19T00:14:23;22.60;99.90
60701;DHT22;46541;49.894;10.886;2022-08-19T00:16:51;22.60;99.90
60701;DHT22;46541;49.894;10.886;2022-08-19T00:19:21;22.50;99.90
60701;DHT22;46541;49.894;10.886;2022-08-19T00:21:48;22.40;99.90
60701;DHT22;46541;49.894;10.886;2022-08-19T00:24:16;22.40;99.90
60701;DHT22;46541;49.894;10.886;2022-08-19T00:26:44;22.40;99.90
60701;DHT22;46541;49.894;10.886;2022-08-19T00:29:13;22.30;99.90
60701;DHT22;46541;49.894;10.886;2022-08-19T00:31:41;22.30;99.90
60701;DHT22;46541;49.894;10.886;2022-08-19T00:34:10;22.30;99.90
60701;DHT22;46541;49.894;10.886;2022-08-19T00:36:39;22.30;99.90
60701;DHT22;46541;49.894;10.886;2022-08-19T00:39:06;22.30;99.90
60701;DHT22;46541;49.894;10.886;2022-08-19T00:41:33;22.20;99.90
60701;DHT22;46541;49.894;10.886;2022-08-19T00:44:07;22.20;99.90
60701;DHT22;46541;49.894;10.886;2022-08-19T00:46:37;22.10;99.90
60701;DHT22;46541;49.894;10.886;2022-08-19T00:49:12;22.20;99.90
60701;DHT22;46541;49.894;10.886;2022-08-19T00:51:42;22.20;99.90
60701;DHT22;46541;49.894;10.886;2022-08-19T00:54:11;22.20;99.90
60701;DHT22;46541;49.894;10.886;2022-08-19T00:56:39;22.20;99.90
60701;DHT22;46541;49.894;10.886;2022-08-19T00:59:07;22.10;99.90
60701;DHT22;46541;49.894;10.886;2022-08-19T01:01:40;22.10;99.90
60701;DHT22;46541;49.894;10.886;2022-08-19T01:04:08;22.10;99.90
60701;DHT22;46541;49.894;10.886;2022-08-19T01:06:39;22.10;99.90
60701;DHT22;46541;49.894;10.886;2022-08-19T01:09:10;22.10;99.90
60701;DHT22;46541;49.894;10.886;2022-08-19T01:11:40;22.00;99.90
60701;DHT22;46541;49.894;10.886;2022-08-19T01:14:10;22.00;99.90
60701;DHT22;46541;49.894;10.886;2022-08-19T01:16:38;21.90;99.90
60701;DHT22;46541;49.894;10.886;2022-08-19T01:19:28;21.90;99.90
60701;DHT22;46541;49.894;10.886;2022-08-19T01:24:42;21.80;99.90
60701;DHT22;46541;49.894;10.886;2022-08-19T01:27:15;21.90;99.90
60701;DHT22;46541;49.894;10.886;2022-08-19T01:29:44;21.90;99.90
60701;DHT22;46541;49.894;10.886;2022-08-19T01:32:14;21.90;99.90
60701;DHT22;46541;49.894;10.886;2022-08-19T01:34:59;21.90;99.90
60701;DHT22;46541;49.894;10.886;2022-08-19T01:37:29;22.00;99.90
60701;DHT22;46541;49.894;10.886;2022-08-19T01:39:57;21.90;99.90
60701;DHT22;46541;49.894;10.886;2022-08-19T01:42:24;21.90;99.90
60701;DHT22;46541;49.894;10.886;2022-08-19T01:44:56;21.90;99.90
60701;DHT22;46541;49.894;10.886;2022-08-19T01:47:23;21.90;99.90
60701;DHT22;46541;49.894;10.886;2022-08-19T01:49:50;21.90;99.90
60701;DHT22;46541;49.894;10.886;2022-08-19T01:52:17;21.90;99.90
60701;DHT22;46541;49.894;10.886;2022-08-19T01:54:44;21.90;99.90
60701;DHT22;46541;49.894;10.886;2022-08-19T01:57:12;21.90;99.90
60701;DHT22;46541;49.894;10.886;2022-08-19T01:59:42;22.00;99.90
60701;DHT22;46541;49.894;10.886;2022-08-19T02:02:10;21.90;99.90
60701;DHT22;46541;49.894;10.886;2022-08-19T02:04:38;21.90;99.90
60701;DHT22;46541;49.894;10.886;2022-08-19T02:07:06;21.90;99.90
60701;DHT22;46541;49.894;10.886;2022-08-19T02:09:35;22.00;99.90
60701;DHT22;46541;49.894;10.886;2022-08-19T02:12:03;22.00;99.90
60701;DHT22;46541;49.894;10.886;2022-08-19T02:14:29;21.90;99.90
60701;DHT22;46541;49.894;10.886;2022-08-19T02:16:56;22.00;99.90
60701;DHT22;46541;49.894;10.886;2022-08-19T02:19:23;22.00;99.90
60701;DHT22;46541;49.894;10.886;2022-08-19T02:21:50;22.00;99.90
60701;DHT22;46541;49.894;10.886;2022-08-19T02:24:17;22.00;99.90
60701;DHT22;46541;49.894;10.886;2022-08-19T02:26:44;22.00;99.90
60701;DHT22;46541;49.894;10.886;2022-08-19T02:29:10;22.00;99.90
60701;DHT22;46541;49.894;10.886;2022-08-19T02:31:37;22.00;99.90
60701;DHT22;46541;49.894;10.886;2022-08-19T02:34:04;22.00;99.90
60701;DHT22;46541;49.894;10.886;2022-08-19T02:36:31;22.00;99.90
60701;DHT22;46541;49.894;10.886;2022-08-19T02:38:58;22.10;99.90
60701;DHT22;46541;49.894;10.886;2022-08-19T02:41:28;22.10;99.90
60701;DHT22;46541;49.894;10.886;2022-08-19T02:43:58;22.00;99.90
60701;DHT22;46541;49.894;10.886;2022-08-19T02:46:47;22.00;99.90
60701;DHT22;46541;49.894;10.886;2022-08-19T02:49:14;22.00;99.90
60701;DHT22;46541;49.894;10.886;2022-08-19T02:51:44;21.90;99.90
60701;DHT22;46541;49.894;10.886;2022-08-19T02:54:12;22.00;99.90
60701;DHT22;46541;49.894;10.886;2022-08-19T02:56:41;22.00;99.90
60701;DHT22;46541;49.894;10.886;2022-08-19T02:59:08;22.00;99.90
60701;DHT22;46541;49.894;10.886;2022-08-19T03:01:38;22.00;99.90
60701;DHT22;46541;49.894;10.886;2022-08-19T03:04:07;22.00;99.90
60701;DHT22;46541;49.894;10.886;2022-08-19T03:06:38;21.90;99.90
60701;DHT22;46541;49.894;10.886;2022-08-19T03:09:05;21.90;99.90
60701;DHT22;46541;49.894;10.886;2022-08-19T03:11:32;21.90;99.90
60701;DHT22;46541;49.894;10.886;2022-08-19T03:14:00;21.90;99.90
60701;DHT22;46541;49.894;10.886;2022-08-19T03:16:29;22.00;99.90
60701;DHT22;46541;49.894;10.886;2022-08-19T03:19:00;22.00;99.90
60701;DHT22;46541;49.894;10.886;2022-08-19T03:21:30;22.00;99.90
60701;DHT22;46541;49.894;10.886;2022-08-19T03:24:00;22.00;99.90
60701;DHT22;46541;49.894;10.886;2022-08-19T03:26:28;22.00;99.90
60701;DHT22;46541;49.894;10.886;2022-08-19T03:28:55;22.00;99.90
60701;DHT22;46541;49.894;10.886;2022-08-19T03:31:26;22.00;99.90
60701;DHT22;46541;49.894;10.886;2022-08-19T03:34:16;22.00;99.90
60701;DHT22;46541;49.894;10.886;2022-08-19T03:36:45;22.00;99.90
60701;DHT22;46541;49.894;10.886;2022-08-19T03:39:12;21.90;99.90
60701;DHT22;46541;49.894;10.886;2022-08-19T03:41:42;22.00;99.90
60701;DHT22;46541;49.894;10.886;2022-08-19T03:44:17;22.00;99.90
60701;DHT22;46541;49.894;10.886;2022-08-19T03:46:47;22.00;99.90
60701;DHT22;46541;49.894;10.886;2022-08-19T03:49:16;21.90;99.90
60701;DHT22;46541;49.894;10.886;2022-08-19T03:51:46;21.90;99.90
60701;DHT22;46541;49.894;10.886;2022-08-19T03:54:14;21.90;99.90
60701;DHT22;46541;49.894;10.886;2022-08-19T03:56:43;21.90;99.90
60701;DHT22;46541;49.894;10.886;2022-08-19T03:59:19;21.90;99.90
60701;DHT22;46541;49.894;10.886;2022-08-19T04:01:46;21.90;99.90
60701;DHT22;46541;49.894;10.886;2022-08-19T04:04:13;21.90;99.90
60701;DHT22;46541;49.894;10.886;2022-08-19T04:06:40;21.90;99.90
60701;DHT22;46541;49.894;10.886;2022-08-19T04:09:09;21.90;99.90
60701;DHT22;46541;49.894;10.886;2022-08-19T04:11:43;21.90;99.90
60701;DHT22;46541;49.894;10.886;2022-08-19T04:14:18;21.90;99.90
60701;DHT22;46541;49.894;10.886;2022-08-19T04:16:47;21.90;99.90
60701;DHT22;46541;49.894;10.886;2022-08-19T04:19:15;21.90;99.90
60701;DHT22;46541;49.894;10.886;2022-08-19T04:21:44;21.90;99.90
60701;DHT22;46541;49.894;10.886;2022-08-19T04:24:12;21.90;99.90
60701;DHT22;46541;49.894;10.886;2022-08-19T04:26:39;21.90;99.90
60701;DHT22;46541;49.894;10.886;2022-08-19T04:29:15;21.80;99.90
60701;DHT22;46541;49.894;10.886;2022-08-19T04:31:43;21.90;99.90
60701;DHT22;46541;49.894;10.886;2022-08-19T04:34:13;21.90;99.90
60701;DHT22;46541;49.894;10.886;2022-08-19T04:36:41;21.90;99.90
60701;DHT22;46541;49.894;10.886;2022-08-19T04:39:11;21.90;99.90
60701;DHT22;46541;49.894;10.886;2022-08-19T04:41:38;21.90;99.90
60701;DHT22;46541;49.894;10.886;2022-08-19T04:44:24;21.90;99.90
60701;DHT22;46541;49.894;10.886;2022-08-19T04:46:51;21.80;99.90
60701;DHT22;46541;49.894;10.886;2022-08-19T04:49:20;21.80;99.90
60701;DHT22;46541;49.894;10.886;2022-08-19T04:51:52;21.80;99.90
60701;DHT22;46541;49.894;10.886;2022-08-19T04:54:22;21.80;99.90
60701;DHT22;46541;49.894;10.886;2022-08-19T04:57:06;21.80;99.90
60701;DHT22;46541;49.894;10.886;2022-08-19T04:59:35;21.80;99.90
60701;DHT22;46541;49.894;10.886;2022-08-19T05:02:03;21.80;99.90
60701;DHT22;46541;49.894;10.886;2022-08-19T05:04:30;21.80;99.90
60701;DHT22;46541;49.894;10.886;2022-08-19T05:06:59;21.80;99.90
60701;DHT22;46541;49.894;10.886;2022-08-19T05:09:28;21.80;99.90
60701;DHT22;46541;49.894;10.886;2022-08-19T05:12:16;21.80;99.90
60701;DHT22;46541;49.894;10.886;2022-08-19T05:14:44;21.80;99.90
60701;DHT22;46541;49.894;10.886;2022-08-19T05:17:13;21.80;99.90
60701;DHT22;46541;49.894;10.886;2022-08-19T05:20:00;21.80;99.90
60701;DHT22;46541;49.894;10.886;2022-08-19T05:22:46;21.80;99.90
60701;DHT22;46541;49.894;10.886;2022-08-19T05:25:17;21.80;99.90
60701;DHT22;46541;49.894;10.886;2022-08-19T05:27:46;21.80;99.90
60701;DHT22;46541;49.894;10.886;2022-08-19T05:30:14;21.80;99.90
60701;DHT22;46541;49.894;10.886;2022-08-19T05:32:40;21.80;99.90
60701;DHT22;46541;49.894;10.886;2022-08-19T05:35:08;21.80;99.90
60701;DHT22;46541;49.894;10.886;2022-08-19T05:37:36;21.80;99.90
60701;DHT22;46541;49.894;10.886;2022-08-19T05:40:03;21.80;99.90
60701;DHT22;46541;49.894;10.886;2022-08-19T05:42:30;21.80;99.90
60701;DHT22;46541;49.894;10.886;2022-08-19T05:44:57;21.90;99.90
60701;DHT22;46541;49.894;10.886;2022-08-19T05:47:24;21.90;99.90
60701;DHT22;46541;49.894;10.886;2022-08-19T05:49:51;21.90;99.90
60701;DHT22;46541;49.894;10.886;2022-08-19T05:52:19;21.90;99.90
60701;DHT22;46541;49.894;10.886;2022-08-19T05:54:51;21.90;99.90
60701;DHT22;46541;49.894;10.886;2022-08-19T05:57:22;21.90;99.90
60701;DHT22;46541;49.894;10.886;2022-08-19T05:59:49;21.90;99.90
60701;DHT22;46541;49.894;10.886;2022-08-19T06:02:28;22.00;99.90
60701;DHT22;46541;49.894;10.886;2022-08-19T06:04:57;22.00;99.90
60701;DHT22;46541;49.894;10.886;2022-08-19T06:07:24;22.00;99.90
60701;DHT22;46541;49.894;10.886;2022-08-19T06:09:51;22.00;99.90
60701;DHT22;46541;49.894;10.886;2022-08-19T06:12:31;22.00;99.90
60701;DHT22;46541;49.894;10.886;2022-08-19T06:15:10;22.00;99.90
60701;DHT22;46541;49.894;10.886;2022-08-19T06:17:38;22.10;99.90
60701;DHT22;46541;49.894;10.886;2022-08-19T06:20:10;22.10;99.90
60701;DHT22;46541;49.894;10.886;2022-08-19T06:22:41;22.10;99.90
60701;DHT22;46541;49.894;10.886;2022-08-19T06:25:09;22.10;99.90
60701;DHT22;46541;49.894;10.886;2022-08-19T06:27:36;22.10;99.90
60701;DHT22;46541;49.894;10.886;2022-08-19T06:30:18;22.10;99.90
60701;DHT22;46541;49.894;10.886;2022-08-19T06:32:45;22.10;99.90
60701;DHT22;46541;49.894;10.886;2022-08-19T06:35:12;22.20;99.90
60701;DHT22;46541;49.894;10.886;2022-08-19T06:37:41;22.10;99.90
60701;DHT22;46541;49.894;10.886;2022-08-19T06:40:10;22.10;99.90
60701;DHT22;46541;49.894;10.886;2022-08-19T06:42:39;22.20;99.90
60701;DHT22;46541;49.894;10.886;2022-08-19T06:45:21;22.20;99.90
60701;DHT22;46541;49.894;10.886;2022-08-19T06:47:52;22.20;99.90
60701;DHT22;46541;49.894;10.886;2022-08-19T06:50:25;22.20;99.90
60701;DHT22;46541;49.894;10.886;2022-08-19T06:52:52;22.20;99.90
60701;DHT22;46541;49.894;10.886;2022-08-19T06:55:21;22.20;99.90
60701;DHT22;46541;49.894;10.886;2022-08-19T06:57:47;22.20;99.90
60701;DHT22;46541;49.894;10.886;2022-08-19T07:00:15;22.20;99.90
60701;DHT22;46541;49.894;10.886;2022-08-19T07:02:43;22.20;99.90
60701;DHT22;46541;49.894;10.886;2022-08-19T07:05:21;22.20;99.90
60701;DHT22;46541;49.894;10.886;2022-08-19T07:07:48;22.20;99.90
60701;DHT22;46541;49.894;10.886;2022-08-19T07:10:16;22.20;99.90
60701;DHT22;46541;49.894;10.886;2022-08-19T07:12:43;22.20;99.90
60701;DHT22;46541;49.894;10.886;2022-08-19T07:15:11;22.20;99.90
60701;DHT22;46541;49.894;10.886;2022-08-19T07:17:39;22.20;99.90
60701;DHT22;46541;49.894;10.886;2022-08-19T07:20:09;22.20;99.90
60701;DHT22;46541;49.894;10.886;2022-08-19T07:22:39;22.30;99.90
60701;DHT22;46541;49.894;10.886;2022-08-19T07:25:09;22.30;99.90
60701;DHT22;46541;49.894;10.886;2022-08-19T07:27:36;22.40;99.90
60701;DHT22;46541;49.894;10.886;2022-08-19T07:30:06;22.40;99.90
60701;DHT22;46541;49.894;10.886;2022-08-19T07:32:37;22.50;99.90
60701;DHT22;46541;49.894;10.886;2022-08-19T07:35:04;22.60;99.90
60701;DHT22;46541;49.894;10.886;2022-08-19T07:37:32;22.70;99.90
60701;DHT22;46541;49.894;10.886;2022-08-19T07:40:01;22.80;99.90
60701;DHT22;46541;49.894;10.886;2022-08-19T07:42:28;22.80;99.90
60701;DHT22;46541;49.894;10.886;2022-08-19T07:44:57;22.80;99.90
60701;DHT22;46541;49.894;10.886;2022-08-19T07:47:24;22.80;99.90
60701;DHT22;46541;49.894;10.886;2022-08-19T07:50:11;22.80;99.90
60701;DHT22;46541;49.894;10.886;2022-08-19T07:52:38;22.80;99.90
60701;DHT22;46541;49.894;10.886;2022-08-19T07:55:08;22.90;99.90
60701;DHT22;46541;49.894;10.886;2022-08-19T07:57:55;23.10;99.90
60701;DHT22;46541;49.894;10.886;2022-08-19T08:00:22;23.20;99.90
60701;DHT22;46541;49.894;10.886;2022-08-19T08:02:51;23.20;99.90
60701;DHT22;46541;49.894;10.886;2022-08-19T08:05:22;23.20;99.90
60701;DHT22;46541;49.894;10.886;2022-08-19T08:08:10;23.20;99.90
60701;DHT22;46541;49.894;10.886;2022-08-19T08:10:55;23.20;99.90
60701;DHT22;46541;49.894;10.886;2022-08-19T08:13:24;23.20;99.90
60701;DHT22;46541;49.894;10.886;2022-08-19T08:15:52;23.20;99.90
60701;DHT22;46541;49.894;10.886;2022-08-19T08:18:20;23.30;99.90
60701;DHT22;46541;49.894;10.886;2022-08-19T08:20:56;23.30;99.90
60701;DHT22;46541;49.894;10.886;2022-08-19T08:23:24;23.30;99.90
60701;DHT22;46541;49.894;10.886;2022-08-19T08:25:57;23.40;99.90
60701;DHT22;46541;49.894;10.886;2022-08-19T08:28:25;23.60;99.90
60701;DHT22;46541;49.894;10.886;2022-08-19T08:30:56;23.90;99.90
60701;DHT22;46541;49.894;10.886;2022-08-19T08:33:26;24.10;99.90
60701;DHT22;46541;49.894;10.886;2022-08-19T08:36:11;24.30;99.90
60701;DHT22;46541;49.894;10.886;2022-08-19T08:38:38;24.50;99.90
60701;DHT22;46541;49.894;10.886;2022-08-19T08:44:03;24.80;99.90
60701;DHT22;46541;49.894;10.886;2022-08-19T08:51:48;24.90;99.90
60701;DHT22;46541;49.894;10.886;2022-08-19T08:54:30;25.00;99.90
60701;DHT22;46541;49.894;10.886;2022-08-19T08:57:04;25.30;99.90
60701;DHT22;46541;49.894;10.886;2022-08-19T08:59:35;25.50;99.90
60701;DHT22;46541;49.894;10.886;2022-08-19T09:02:03;25.60;99.90
60701;DHT22;46541;49.894;10.886;2022-08-19T09:04:30;25.60;99.90
60701;DHT22;46541;49.894;10.886;2022-08-19T09:10:10;25.50;99.90
60701;DHT22;46541;49.894;10.886;2022-08-19T09:13:28;25.30;99.90
60701;DHT22;46541;49.894;10.886;2022-08-19T09:15:40;25.00;99.90
60701;DHT22;46541;49.894;10.886;2022-08-19T09:18:08;24.80;99.90
60701;DHT22;46541;49.894;10.886;2022-08-19T09:20:45;24.60;99.90
60701;DHT22;46541;49.894;10.886;2022-08-19T09:23:15;24.60;99.90
60701;DHT22;46541;49.894;10.886;2022-08-19T09:25:41;24.50;99.90
60701;DHT22;46541;49.894;10.886;2022-08-19T09:28:08;24.40;99.90
60701;DHT22;46541;49.894;10.886;2022-08-19T09:30:48;24.40;99.90
60701;DHT22;46541;49.894;10.886;2022-08-19T09:33:18;24.40;99.90
60701;DHT22;46541;49.894;10.886;2022-08-19T09:35:46;24.30;99.90
60701;DHT22;46541;49.894;10.886;2022-08-19T09:38:20;24.20;99.90
60701;DHT22;46541;49.894;10.886;2022-08-19T09:40:47;24.10;99.90
60701;DHT22;46541;49.894;10.886;2022-08-19T09:43:14;24.00;99.90
60701;DHT22;46541;49.894;10.886;2022-08-19T09:46:00;23.90;99.90
60701;DHT22;46541;49.894;10.886;2022-08-19T09:48:27;23.80;99.90
60701;DHT22;46541;49.894;10.886;2022-08-19T09:50:53;23.80;99.90
60701;DHT22;46541;49.894;10.886;2022-08-19T09:53:20;23.80;99.90
60701;DHT22;46541;49.894;10.886;2022-08-19T09:55:51;23.70;99.90
60701;DHT22;46541;49.894;10.886;2022-08-19T09:58:18;23.80;99.90
60701;DHT22;46541;49.894;10.886;2022-08-19T10:00:51;23.70;99.90
60701;DHT22;46541;49.894;10.886;2022-08-19T10:03:20;23.80;99.90
60701;DHT22;46541;49.894;10.886;2022-08-19T10:05:51;23.90;99.90
60701;DHT22;46541;49.894;10.886;2022-08-19T10:08:33;24.00;99.90
60701;DHT22;46541;49.894;10.886;2022-08-19T10:11:01;24.20;99.90
60701;DHT22;46541;49.894;10.886;2022-08-19T10:13:49;24.30;99.90
60701;DHT22;46541;49.894;10.886;2022-08-19T10:16:19;24.40;99.90
60701;DHT22;46541;49.894;10.886;2022-08-19T10:18:52;24.40;99.90
60701;DHT22;46541;49.894;10.886;2022-08-19T10:21:27;24.40;99.90
60701;DHT22;46541;49.894;10.886;2022-08-19T10:24:00;24.30;99.90
60701;DHT22;46541;49.894;10.886;2022-08-19T10:26:31;24.20;99.90
60701;DHT22;46541;49.894;10.886;2022-08-19T10:28:58;24.20;99.90
60701;DHT22;46541;49.894;10.886;2022-08-19T10:31:28;24.10;99.90
60701;DHT22;46541;49.894;10.886;2022-08-19T10:34:15;24.20;99.90
60701;DHT22;46541;49.894;10.886;2022-08-19T10:36:54;24.20;99.90
60701;DHT22;46541;49.894;10.886;2022-08-19T10:39:28;24.20;99.90
60701;DHT22;46541;49.894;10.886;2022-08-19T10:41:57;24.30;99.90
60701;DHT22;46541;49.894;10.886;2022-08-19T10:44:24;24.30;99.90
60701;DHT22;46541;49.894;10.886;2022-08-19T10:46:59;24.40;99.90
60701;DHT22;46541;49.894;10.886;2022-08-19T10:49:26;24.50;99.90
60701;DHT22;46541;49.894;10.886;2022-08-19T10:51:55;24.60;99.90
60701;DHT22;46541;49.894;10.886;2022-08-19T10:54:45;24.60;99.90
60701;DHT22;46541;49.894;10.886;2022-08-19T10:57:34;24.80;99.90
60701;DHT22;46541;49.894;10.886;2022-08-19T11:00:22;25.00;99.90
60701;DHT22;46541;49.894;10.886;2022-08-19T11:02:50;25.00;99.90
60701;DHT22;46541;49.894;10.886;2022-08-19T11:05:18;25.10;99.90
60701;DHT22;46541;49.894;10.886;2022-08-19T11:07:45;25.00;99.90
60701;DHT22;46541;49.894;10.886;2022-08-19T11:10:13;25.00;99.90
60701;DHT22;46541;49.894;10.886;2022-08-19T11:12:46;25.00;99.90
60701;DHT22;46541;49.894;10.886;2022-08-19T11:15:13;24.90;99.90
60701;DHT22;46541;49.894;10.886;2022-08-19T11:17:41;24.80;99.90
60701;DHT22;46541;49.894;10.886;2022-08-19T11:20:10;24.80;99.90
60701;DHT22;46541;49.894;10.886;2022-08-19T11:22:37;24.70;99.90
60701;DHT22;46541;49.894;10.886;2022-08-19T11:25:08;24.70;99.90
60701;DHT22;46541;49.894;10.886;2022-08-19T11:27:42;24.70;99.90
60701;DHT22;46541;49.894;10.886;2022-08-19T11:30:12;24.60;99.90
60701;DHT22;46541;49.894;10.886;2022-08-19T11:32:42;24.60;99.90
60701;DHT22;46541;49.894;10.886;2022-08-19T11:35:15;24.50;99.90
60701;DHT22;46541;49.894;10.886;2022-08-19T11:37:42;24.50;99.90
60701;DHT22;46541;49.894;10.886;2022-08-19T11:40:10;24.40;99.90
60701;DHT22;46541;49.894;10.886;2022-08-19T11:42:37;24.40;99.90
60701;DHT22;46541;49.894;10.886;2022-08-19T11:45:24;24.40;99.90
60701;DHT22;46541;49.894;10.886;2022-08-19T11:47:52;24.30;99.90
60701;DHT22;46541;49.894;10.886;2022-08-19T11:50:19;24.30;99.90
60701;DHT22;46541;49.894;10.886;2022-08-19T11:52:47;24.30;99.90
60701;DHT22;46541;49.894;10.886;2022-08-19T11:55:14;24.30;99.90
60701;DHT22;46541;49.894;10.886;2022-08-19T11:57:41;24.20;99.90
60701;DHT22;46541;49.894;10.886;2022-08-19T12:00:10;24.20;99.90
60701;DHT22;46541;49.894;10.886;2022-08-19T12:02:39;24.20;99.90
60701;DHT22;46541;49.894;10.886;2022-08-19T12:05:06;24.20;99.90
60701;DHT22;46541;49.894;10.886;2022-08-19T12:07:38;24.20;99.90
60701;DHT22;46541;49.894;10.886;2022-08-19T12:10:06;24.10;99.90
60701;DHT22;46541;49.894;10.886;2022-08-19T12:12:34;24.00;99.90
60701;DHT22;46541;49.894;10.886;2022-08-19T12:15:01;24.00;99.90
60701;DHT22;46541;49.894;10.886;2022-08-19T12:17:28;24.00;99.90
60701;DHT22;46541;49.894;10.886;2022-08-19T12:19:57;24.00;99.90
60701;DHT22;46541;49.894;10.886;2022-08-19T12:22:24;23.90;99.90
60701;DHT22;46541;49.894;10.886;2022-08-19T12:24:51;23.90;99.90
60701;DHT22;46541;49.894;10.886;2022-08-19T12:27:19;23.90;99.90
60701;DHT22;46541;49.894;10.886;2022-08-19T12:30:06;23.90;99.90
60701;DHT22;46541;49.894;10.886;2022-08-19T12:32:34;24.00;99.90
60701;DHT22;46541;49.894;10.886;2022-08-19T12:35:02;23.90;99.90
60701;DHT22;46541;49.894;10.886;2022-08-19T12:37:29;23.90;99.90
60701;DHT22;46541;49.894;10.886;2022-08-19T12:39:58;23.90;99.90
60701;DHT22;46541;49.894;10.886;2022-08-19T12:42:25;23.80;99.90
60701;DHT22;46541;49.894;10.886;2022-08-19T12:44:52;23.80;99.90
60701;DHT22;46541;49.894;10.886;2022-08-19T12:47:19;23.80;99.90
60701;DHT22;46541;49.894;10.886;2022-08-19T12:49:48;23.80;99.90
60701;DHT22;46541;49.894;10.886;2022-08-19T12:52:23;23.50;99.90
60701;DHT22;46541;49.894;10.886;2022-08-19T12:54:54;23.30;99.90
60701;DHT22;46541;49.894;10.886;2022-08-19T12:57:26;23.20;99.90
60701;DHT22;46541;49.894;10.886;2022-08-19T13:00:00;23.00;99.90
60701;DHT22;46541;49.894;10.886;2022-08-19T13:02:31;22.90;99.90
60701;DHT22;46541;49.894;10.886;2022-08-19T13:05:06;23.00;99.90
60701;DHT22;46541;49.894;10.886;2022-08-19T13:07:35;22.90;99.90
60701;DHT22;46541;49.894;10.886;2022-08-19T13:10:05;22.90;99.90
60701;DHT22;46541;49.894;10.886;2022-08-19T13:12:32;22.90;99.90
60701;DHT22;46541;49.894;10.886;2022-08-19T13:14:59;22.80;99.90
60701;DHT22;46541;49.894;10.886;2022-08-19T13:17:25;22.80;99.90
60701;DHT22;46541;49.894;10.886;2022-08-19T13:19:53;22.80;99.90
60701;DHT22;46541;49.894;10.886;2022-08-19T13:22:20;22.70;99.90
60701;DHT22;46541;49.894;10.886;2022-08-19T13:24:47;22.80;99.90
60701;DHT22;46541;49.894;10.886;2022-08-19T13:27:15;22.80;99.90
60701;DHT22;46541;49.894;10.886;2022-08-19T13:29:42;22.80;99.90
60701;DHT22;46541;49.894;10.886;2022-08-19T13:32:29;22.80;99.90
60701;DHT22;46541;49.894;10.886;2022-08-19T13:35:16;22.80;99.90
60701;DHT22;46541;49.894;10.886;2022-08-19T13:37:43;22.70;99.90
60701;DHT22;46541;49.894;10.886;2022-08-19T13:40:15;22.60;99.90
60701;DHT22;46541;49.894;10.886;2022-08-19T13:42:47;22.60;99.90
60701;DHT22;46541;49.894;10.886;2022-08-19T13:45:19;22.60;99.90
60701;DHT22;46541;49.894;10.886;2022-08-19T13:47:48;22.60;99.90
60701;DHT22;46541;49.894;10.886;2022-08-19T13:50:21;22.60;99.90
60701;DHT22;46541;49.894;10.886;2022-08-19T13:52:48;22.70;99.90
60701;DHT22;46541;49.894;10.886;2022-08-19T13:55:15;22.70;99.90
60701;DHT22;46541;49.894;10.886;2022-08-19T13:57:55;22.80;99.90
60701;DHT22;46541;49.894;10.886;2022-08-19T14:00:24;22.80;99.90
60701;DHT22;46541;49.894;10.886;2022-08-19T14:02:55;22.90;99.90
60701;DHT22;46541;49.894;10.886;2022-08-19T14:05:23;22.90;99.90
60701;DHT22;46541;49.894;10.886;2022-08-19T14:07:50;22.80;99.90
60701;DHT22;46541;49.894;10.886;2022-08-19T14:10:17;22.80;99.90
60701;DHT22;46541;49.894;10.886;2022-08-19T14:12:45;22.80;99.90
60701;DHT22;46541;49.894;10.886;2022-08-19T14:15:14;22.80;99.90
60701;DHT22;46541;49.894;10.886;2022-08-19T14:17:45;22.80;99.90
60701;DHT22;46541;49.894;10.886;2022-08-19T14:20:15;22.80;99.90
60701;DHT22;46541;49.894;10.886;2022-08-19T14:22:45;22.90;99.90
60701;DHT22;46541;49.894;10.886;2022-08-19T14:25:19;23.00;99.90
60701;DHT22;46541;49.894;10.886;2022-08-19T14:27:47;23.00;99.90
60701;DHT22;46541;49.894;10.886;2022-08-19T14:30:17;23.10;99.90
60701;DHT22;46541;49.894;10.886;2022-08-19T14:32:44;23.10;99.90
60701;DHT22;46541;49.894;10.886;2022-08-19T14:35:14;23.10;99.90
60701;DHT22;46541;49.894;10.886;2022-08-19T14:37:42;23.20;99.90
60701;DHT22;46541;49.894;10.886;2022-08-19T14:40:13;23.10;99.90
60701;DHT22;46541;49.894;10.886;2022-08-19T14:42:41;23.10;99.90
60701;DHT22;46541;49.894;10.886;2022-08-19T14:45:09;23.10;99.90
60701;DHT22;46541;49.894;10.886;2022-08-19T14:47:36;23.10;99.90
60701;DHT22;46541;49.894;10.886;2022-08-19T14:50:08;23.10;99.90
60701;DHT22;46541;49.894;10.886;2022-08-19T14:52:43;23.10;99.90
60701;DHT22;46541;49.894;10.886;2022-08-19T14:55:10;23.10;99.90
60701;DHT22;46541;49.894;10.886;2022-08-19T14:57:37;23.10;99.90
60701;DHT22;46541;49.894;10.886;2022-08-19T15:00:04;23.10;99.90
60701;DHT22;46541;49.894;10.886;2022-08-19T15:02:31;23.10;99.90
60701;DHT22;46541;49.894;10.886;2022-08-19T15:05:01;23.10;99.90
60701;DHT22;46541;49.894;10.886;2022-08-19T15:07:29;23.00;99.90
60701;DHT22;46541;49.894;10.886;2022-08-19T15:09:57;23.00;99.90
60701;DHT22;46541;49.894;10.886;2022-08-19T15:12:24;23.00;99.90
60701;DHT22;46541;49.894;10.886;2022-08-19T15:14:52;23.00;99.90
60701;DHT22;46541;49.894;10.886;2022-08-19T15:17:22;22.90;99.90
60701;DHT22;46541;49.894;10.886;2022-08-19T15:20:11;22.90;99.90
60701;DHT22;46541;49.894;10.886;2022-08-19T15:22:39;22.80;99.90
60701;DHT22;46541;49.894;10.886;2022-08-19T15:25:07;22.80;99.90
60701;DHT22;46541;49.894;10.886;2022-08-19T15:27:37;22.80;99.90
60701;DHT22;46541;49.894;10.886;2022-08-19T15:30:08;22.80;99.90
60701;DHT22;46541;49.894;10.886;2022-08-19T15:32:36;22.80;99.90
60701;DHT22;46541;49.894;10.886;2022-08-19T15:35:04;22.70;99.90
60701;DHT22;46541;49.894;10.886;2022-08-19T15:37:32;22.70;99.90
60701;DHT22;46541;49.894;10.886;2022-08-19T15:40:04;22.70;99.90
60701;DHT22;46541;49.894;10.886;2022-08-19T15:42:32;22.60;99.90
60701;DHT22;46541;49.894;10.886;2022-08-19T15:44:59;22.60;99.90
60701;DHT22;46541;49.894;10.886;2022-08-19T15:47:30;22.60;99.90
60701;DHT22;46541;49.894;10.886;2022-08-19T15:52:37;22.50;99.90